sensor_id;sensor_type;location;lat;lon;timestamp;P1;durP1;ratioP1;P2;durP2;ratioP2
27857;SDS011;16852;51.446;6.528;2024-03-23T00:52:17;5.43;;;1.80;;
27857;SDS011;16852;51.446;6.528;2024-03-23T00:54:18;9.82;;;2.75;;
27857;SDS011;16852;51.446;6.528;2024-03-23T00:56:18;7.50;;;2.10;;
27857;SDS011;16852;51.446;6.528;2024-03-23T00:58:19;8.50;;;2.10;;
27857;SDS011;16852;51.446;6.528;2024-03-23T01:00:19;9.60;;;2.30;;
27857;SDS011;16852;51.446;6.528;2024-03-23T01:02:20;5.30;;;2.00;;
27857;SDS011;16852;51.446;6.528;2024-03-23T01:04:21;5.38;;;1.75;;
27857;SDS011;16852;51.446;6.528;2024-03-23T01:06:22;5.15;;;1.73;;
27857;SDS011;16852;51.446;6.528;2024-03-23T01:08:22;5.00;;;1.67;;
27857;SDS011;16852;51.446;6.528;2024-03-23T01:10:23;3.85;;;1.45;;
27857;SDS011;16852;51.446;6.528;2024-03-23T01:12:23;3.47;;;1.15;;
27857;SDS011;16852;51.446;6.528;2024-03-23T01:14:24;4.35;;;1.67;;
27857;SDS011;16852;51.446;6.528;2024-03-23T01:16:25;4.30;;;1.58;;
27857;SDS011;16852;51.446;6.528;2024-03-23T01:18:25;3.47;;;1.48;;
27857;SDS011;16852;51.446;6.528;2024-03-23T01:20:26;2.83;;;1.17;;
27857;SDS011;16852;51.446;6.528;2024-03-23T01:22:27;5.38;;;1.52;;
27857;SDS011;16852;51.446;6.528;2024-03-23T01:24:28;7.05;;;1.75;;
27857;SDS011;16852;51.446;6.528;2024-03-23T01:26:28;5.57;;;1.50;;
27857;SDS011;16852;51.446;6.528;2024-03-23T01:28:29;4.68;;;1.42;;
27857;SDS011;16852;51.446;6.528;2024-03-23T01:30:29;4.72;;;1.67;;
27857;SDS011;16852;51.446;6.528;2024-03-23T01:32:30;4.95;;;1.33;;
27857;SDS011;16852;51.446;6.528;2024-03-23T01:34:31;9.00;;;2.13;;
27857;SDS011;16852;51.446;6.528;2024-03-23T01:36:31;6.47;;;1.40;;
27857;SDS011;16852;51.446;6.528;2024-03-23T01:38:32;5.45;;;1.83;;
27857;SDS011;16852;51.446;6.528;2024-03-23T01:40:33;5.60;;;1.70;;
27857;SDS011;16852;51.446;6.528;2024-03-23T01:42:33;5.03;;;1.23;;
27857;SDS011;16852;51.446;6.528;2024-03-23T01:44:34;6.50;;;2.10;;
27857;SDS011;16852;51.446;6.528;2024-03-23T01:46:35;4.10;;;1.45;;
27857;SDS011;16852;51.446;6.528;2024-03-23T01:48:37;5.88;;;1.48;;
27857;SDS011;16852;51.446;6.528;2024-03-23T01:50:38;5.18;;;1.45;;
27857;SDS011;16852;51.446;6.528;2024-03-23T01:52:39;7.15;;;1.80;;
27857;SDS011;16852;51.446;6.528;2024-03-23T01:54:39;4.32;;;1.33;;
27857;SDS011;16852;51.446;6.528;2024-03-23T01:56:40;4.85;;;1.30;;
27857;SDS011;16852;51.446;6.528;2024-03-23T01:58:41;2.38;;;1.15;;
27857;SDS011;16852;51.446;6.528;2024-03-23T02:00:42;5.57;;;1.42;;
27857;SDS011;16852;51.446;6.528;2024-03-23T02:02:43;6.43;;;1.75;;
27857;SDS011;16852;51.446;6.528;2024-03-23T02:04:47;2.45;;;1.17;;
27857;SDS011;16852;51.446;6.528;2024-03-23T02:06:47;4.45;;;1.23;;
27857;SDS011;16852;51.446;6.528;2024-03-23T02:08:49;4.03;;;1.45;;
27857;SDS011;16852;51.446;6.528;2024-03-23T02:10:50;6.03;;;1.35;;
27857;SDS011;16852;51.446;6.528;2024-03-23T02:12:51;4.10;;;1.35;;
27857;SDS011;16852;51.446;6.528;2024-03-23T02:14:52;3.72;;;1.55;;
27857;SDS011;16852;51.446;6.528;2024-03-23T02:16:52;4.18;;;1.40;;
27857;SDS011;16852;51.446;6.528;2024-03-23T02:18:53;6.75;;;1.80;;
27857;SDS011;16852;51.446;6.528;2024-03-23T02:20:53;7.18;;;1.50;;
27857;SDS011;16852;51.446;6.528;2024-03-23T02:22:54;3.63;;;1.60;;
27857;SDS011;16852;51.446;6.528;2024-03-23T02:24:54;2.95;;;1.13;;
27857;SDS011;16852;51.446;6.528;2024-03-23T02:26:55;4.38;;;1.58;;
27857;SDS011;16852;51.446;6.528;2024-03-23T02:28:56;3.25;;;1.10;;
27857;SDS011;16852;51.446;6.528;2024-03-23T02:30:56;2.47;;;1.02;;
27857;SDS011;16852;51.446;6.528;2024-03-23T02:32:58;3.55;;;1.00;;
27857;SDS011;16852;51.446;6.528;2024-03-23T02:34:59;3.90;;;1.42;;
27857;SDS011;16852;51.446;6.528;2024-03-23T02:36:59;3.40;;;1.17;;
27857;SDS011;16852;51.446;6.528;2024-03-23T02:39:00;5.38;;;1.42;;
27857;SDS011;16852;51.446;6.528;2024-03-23T02:41:04;3.95;;;1.17;;
27857;SDS011;16852;51.446;6.528;2024-03-23T02:43:04;4.90;;;1.42;;
27857;SDS011;16852;51.446;6.528;2024-03-23T02:45:05;4.90;;;1.30;;
27857;SDS011;16852;51.446;6.528;2024-03-23T02:47:06;5.68;;;1.30;;
27857;SDS011;16852;51.446;6.528;2024-03-23T02:49:07;4.00;;;1.30;;
27857;SDS011;16852;51.446;6.528;2024-03-23T02:51:08;3.38;;;1.33;;
27857;SDS011;16852;51.446;6.528;2024-03-23T02:53:09;5.78;;;1.05;;
27857;SDS011;16852;51.446;6.528;2024-03-23T02:55:09;3.00;;;1.02;;
27857;SDS011;16852;51.446;6.528;2024-03-23T02:57:10;5.05;;;1.55;;
27857;SDS011;16852;51.446;6.528;2024-03-23T02:59:11;7.57;;;1.65;;
27857;SDS011;16852;51.446;6.528;2024-03-23T03:01:11;4.93;;;1.20;;
27857;SDS011;16852;51.446;6.528;2024-03-23T03:03:12;5.60;;;1.35;;
27857;SDS011;16852;51.446;6.528;2024-03-23T03:05:13;8.52;;;1.63;;
27857;SDS011;16852;51.446;6.528;2024-03-23T03:07:14;4.82;;;1.50;;
27857;SDS011;16852;51.446;6.528;2024-03-23T03:09:14;3.65;;;1.30;;
27857;SDS011;16852;51.446;6.528;2024-03-23T03:11:15;7.40;;;1.63;;
27857;SDS011;16852;51.446;6.528;2024-03-23T03:13:16;3.92;;;1.27;;
27857;SDS011;16852;51.446;6.528;2024-03-23T03:15:16;5.55;;;1.42;;
27857;SDS011;16852;51.446;6.528;2024-03-23T03:17:17;5.97;;;1.77;;
27857;SDS011;16852;51.446;6.528;2024-03-23T03:19:19;2.90;;;1.35;;
27857;SDS011;16852;51.446;6.528;2024-03-23T03:21:19;5.85;;;1.27;;
27857;SDS011;16852;51.446;6.528;2024-03-23T03:23:20;6.30;;;1.80;;
27857;SDS011;16852;51.446;6.528;2024-03-23T03:25:21;4.28;;;1.27;;
27857;SDS011;16852;51.446;6.528;2024-03-23T03:27:21;5.55;;;2.03;;
27857;SDS011;16852;51.446;6.528;2024-03-23T03:29:23;4.47;;;1.38;;
27857;SDS011;16852;51.446;6.528;2024-03-23T03:31:23;4.13;;;1.30;;
27857;SDS011;16852;51.446;6.528;2024-03-23T03:33:24;4.35;;;1.65;;
27857;SDS011;16852;51.446;6.528;2024-03-23T03:35:25;6.82;;;1.65;;
27857;SDS011;16852;51.446;6.528;2024-03-23T03:37:26;5.05;;;1.63;;
27857;SDS011;16852;51.446;6.528;2024-03-23T03:39:26;5.07;;;1.70;;
27857;SDS011;16852;51.446;6.528;2024-03-23T03:41:27;7.68;;;1.98;;
27857;SDS011;16852;51.446;6.528;2024-03-23T03:43:27;8.85;;;1.92;;
27857;SDS011;16852;51.446;6.528;2024-03-23T03:45:28;3.47;;;1.58;;
27857;SDS011;16852;51.446;6.528;2024-03-23T03:47:29;4.05;;;1.60;;
27857;SDS011;16852;51.446;6.528;2024-03-23T03:49:29;8.90;;;1.80;;
27857;SDS011;16852;51.446;6.528;2024-03-23T03:51:30;5.00;;;1.73;;
27857;SDS011;16852;51.446;6.528;2024-03-23T03:53:31;3.67;;;1.85;;
27857;SDS011;16852;51.446;6.528;2024-03-23T03:55:31;12.10;;;2.58;;
27857;SDS011;16852;51.446;6.528;2024-03-23T03:57:32;8.75;;;2.47;;
27857;SDS011;16852;51.446;6.528;2024-03-23T03:59:32;6.78;;;2.20;;
27857;SDS011;16852;51.446;6.528;2024-03-23T04:01:33;7.80;;;2.05;;
27857;SDS011;16852;51.446;6.528;2024-03-23T04:03:34;7.68;;;2.30;;
27857;SDS011;16852;51.446;6.528;2024-03-23T04:05:34;7.10;;;2.00;;
27857;SDS011;16852;51.446;6.528;2024-03-23T04:07:35;11.20;;;2.38;;
27857;SDS011;16852;51.446;6.528;2024-03-23T04:09:36;4.68;;;1.83;;
27857;SDS011;16852;51.446;6.528;2024-03-23T04:11:37;7.95;;;2.05;;
27857;SDS011;16852;51.446;6.528;2024-03-23T04:13:38;6.65;;;2.30;;
27857;SDS011;16852;51.446;6.528;2024-03-23T04:15:41;10.13;;;2.75;;
27857;SDS011;16852;51.446;6.528;2024-03-23T04:17:42;8.27;;;2.45;;
27857;SDS011;16852;51.446;6.528;2024-03-23T04:19:44;7.63;;;2.58;;
27857;SDS011;16852;51.446;6.528;2024-03-23T04:21:44;6.53;;;2.30;;
27857;SDS011;16852;51.446;6.528;2024-03-23T04:23:45;6.75;;;2.13;;
27857;SDS011;16852;51.446;6.528;2024-03-23T04:25:46;6.57;;;2.22;;
27857;SDS011;16852;51.446;6.528;2024-03-23T04:27:46;7.43;;;2.35;;
27857;SDS011;16852;51.446;6.528;2024-03-23T04:29:47;7.90;;;2.20;;
27857;SDS011;16852;51.446;6.528;2024-03-23T04:31:52;8.43;;;2.40;;
27857;SDS011;16852;51.446;6.528;2024-03-23T04:33:53;9.38;;;2.63;;
27857;SDS011;16852;51.446;6.528;2024-03-23T04:35:54;5.40;;;1.92;;
27857;SDS011;16852;51.446;6.528;2024-03-23T04:37:54;3.58;;;1.83;;
27857;SDS011;16852;51.446;6.528;2024-03-23T04:39:59;7.10;;;2.35;;
27857;SDS011;16852;51.446;6.528;2024-03-23T04:42:00;8.55;;;2.22;;
27857;SDS011;16852;51.446;6.528;2024-03-23T04:44:01;8.70;;;2.67;;
27857;SDS011;16852;51.446;6.528;2024-03-23T04:46:02;9.30;;;2.53;;
27857;SDS011;16852;51.446;6.528;2024-03-23T04:48:03;11.48;;;3.30;;
27857;SDS011;16852;51.446;6.528;2024-03-23T04:50:04;5.43;;;2.15;;
27857;SDS011;16852;51.446;6.528;2024-03-23T04:52:05;6.70;;;2.63;;
27857;SDS011;16852;51.446;6.528;2024-03-23T04:54:05;6.43;;;2.53;;
27857;SDS011;16852;51.446;6.528;2024-03-23T04:56:06;10.63;;;2.78;;
27857;SDS011;16852;51.446;6.528;2024-03-23T04:58:07;9.50;;;2.35;;
27857;SDS011;16852;51.446;6.528;2024-03-23T05:00:07;10.07;;;2.92;;
27857;SDS011;16852;51.446;6.528;2024-03-23T05:02:17;6.68;;;2.70;;
27857;SDS011;16852;51.446;6.528;2024-03-23T05:04:17;7.85;;;2.28;;
27857;SDS011;16852;51.446;6.528;2024-03-23T05:06:18;4.32;;;2.05;;
27857;SDS011;16852;51.446;6.528;2024-03-23T05:08:19;6.53;;;2.42;;
27857;SDS011;16852;51.446;6.528;2024-03-23T05:10:19;7.15;;;2.47;;
27857;SDS011;16852;51.446;6.528;2024-03-23T05:12:20;9.65;;;2.83;;
27857;SDS011;16852;51.446;6.528;2024-03-23T05:14:20;9.77;;;2.78;;
27857;SDS011;16852;51.446;6.528;2024-03-23T05:16:21;9.07;;;3.25;;
27857;SDS011;16852;51.446;6.528;2024-03-23T05:18:22;6.25;;;2.60;;
27857;SDS011;16852;51.446;6.528;2024-03-23T05:20:22;5.38;;;2.47;;
27857;SDS011;16852;51.446;6.528;2024-03-23T05:22:23;8.82;;;2.75;;
27857;SDS011;16852;51.446;6.528;2024-03-23T05:24:24;10.68;;;2.80;;
27857;SDS011;16852;51.446;6.528;2024-03-23T05:26:24;7.57;;;2.60;;
27857;SDS011;16852;51.446;6.528;2024-03-23T05:28:25;8.25;;;3.00;;
27857;SDS011;16852;51.446;6.528;2024-03-23T05:30:25;11.77;;;3.22;;
27857;SDS011;16852;51.446;6.528;2024-03-23T05:32:26;7.97;;;2.65;;
27857;SDS011;16852;51.446;6.528;2024-03-23T05:34:26;8.05;;;2.58;;
27857;SDS011;16852;51.446;6.528;2024-03-23T05:36:29;6.68;;;2.70;;
27857;SDS011;16852;51.446;6.528;2024-03-23T05:38:29;7.45;;;2.65;;
27857;SDS011;16852;51.446;6.528;2024-03-23T05:40:30;9.73;;;2.78;;
27857;SDS011;16852;51.446;6.528;2024-03-23T05:42:31;5.57;;;2.60;;
27857;SDS011;16852;51.446;6.528;2024-03-23T05:44:32;5.72;;;2.45;;
27857;SDS011;16852;51.446;6.528;2024-03-23T05:46:33;8.02;;;2.78;;
27857;SDS011;16852;51.446;6.528;2024-03-23T05:48:34;6.70;;;3.03;;
27857;SDS011;16852;51.446;6.528;2024-03-23T05:50:34;14.05;;;2.80;;
27857;SDS011;16852;51.446;6.528;2024-03-23T05:52:35;7.28;;;2.28;;
27857;SDS011;16852;51.446;6.528;2024-03-23T05:54:36;12.18;;;4.05;;
27857;SDS011;16852;51.446;6.528;2024-03-23T05:56:37;9.18;;;3.55;;
27857;SDS011;16852;51.446;6.528;2024-03-23T05:58:37;13.65;;;2.97;;
27857;SDS011;16852;51.446;6.528;2024-03-23T06:00:38;7.00;;;2.72;;
27857;SDS011;16852;51.446;6.528;2024-03-23T06:02:38;10.52;;;3.10;;
27857;SDS011;16852;51.446;6.528;2024-03-23T06:04:39;12.65;;;3.15;;
27857;SDS011;16852;51.446;6.528;2024-03-23T06:06:39;7.82;;;2.63;;
27857;SDS011;16852;51.446;6.528;2024-03-23T06:08:40;5.70;;;3.20;;
27857;SDS011;16852;51.446;6.528;2024-03-23T06:10:41;11.02;;;3.35;;
27857;SDS011;16852;51.446;6.528;2024-03-23T06:12:41;9.88;;;3.67;;
27857;SDS011;16852;51.446;6.528;2024-03-23T06:14:42;9.57;;;3.17;;
27857;SDS011;16852;51.446;6.528;2024-03-23T06:16:42;10.48;;;3.42;;
27857;SDS011;16852;51.446;6.528;2024-03-23T06:18:43;14.43;;;4.13;;
27857;SDS011;16852;51.446;6.528;2024-03-23T06:20:44;8.18;;;3.30;;
27857;SDS011;16852;51.446;6.528;2024-03-23T06:22:44;11.45;;;3.50;;
27857;SDS011;16852;51.446;6.528;2024-03-23T06:24:45;12.55;;;4.43;;
27857;SDS011;16852;51.446;6.528;2024-03-23T06:26:46;9.40;;;3.92;;
27857;SDS011;16852;51.446;6.528;2024-03-23T06:28:46;14.13;;;3.95;;
27857;SDS011;16852;51.446;6.528;2024-03-23T06:30:47;10.82;;;3.85;;
27857;SDS011;16852;51.446;6.528;2024-03-23T06:32:48;11.30;;;4.03;;
27857;SDS011;16852;51.446;6.528;2024-03-23T06:34:49;11.45;;;4.18;;
27857;SDS011;16852;51.446;6.528;2024-03-23T06:36:50;21.77;;;4.57;;
27857;SDS011;16852;51.446;6.528;2024-03-23T06:38:50;13.57;;;4.22;;
27857;SDS011;16852;51.446;6.528;2024-03-23T06:40:52;17.73;;;4.85;;
27857;SDS011;16852;51.446;6.528;2024-03-23T06:42:52;13.80;;;4.78;;
27857;SDS011;16852;51.446;6.528;2024-03-23T06:44:53;11.65;;;4.70;;
27857;SDS011;16852;51.446;6.528;2024-03-23T06:46:54;11.52;;;4.43;;
27857;SDS011;16852;51.446;6.528;2024-03-23T06:48:54;13.93;;;4.70;;
27857;SDS011;16852;51.446;6.528;2024-03-23T06:50:58;10.30;;;4.63;;
27857;SDS011;16852;51.446;6.528;2024-03-23T06:52:59;11.88;;;4.50;;
27857;SDS011;16852;51.446;6.528;2024-03-23T06:55:01;14.07;;;5.55;;
27857;SDS011;16852;51.446;6.528;2024-03-23T06:59:05;15.20;;;5.93;;
27857;SDS011;16852;51.446;6.528;2024-03-23T07:01:05;13.02;;;4.97;;
27857;SDS011;16852;51.446;6.528;2024-03-23T07:03:07;12.95;;;4.78;;
27857;SDS011;16852;51.446;6.528;2024-03-23T07:05:07;10.50;;;5.15;;
27857;SDS011;16852;51.446;6.528;2024-03-23T07:07:08;11.10;;;4.63;;
27857;SDS011;16852;51.446;6.528;2024-03-23T07:09:09;16.73;;;5.88;;
27857;SDS011;16852;51.446;6.528;2024-03-23T07:11:09;16.48;;;5.82;;
27857;SDS011;16852;51.446;6.528;2024-03-23T07:13:10;14.48;;;5.20;;
27857;SDS011;16852;51.446;6.528;2024-03-23T07:15:10;12.90;;;5.10;;
27857;SDS011;16852;51.446;6.528;2024-03-23T07:17:11;10.80;;;4.45;;
27857;SDS011;16852;51.446;6.528;2024-03-23T07:19:11;12.10;;;5.20;;
27857;SDS011;16852;51.446;6.528;2024-03-23T07:21:12;11.38;;;3.97;;
27857;SDS011;16852;51.446;6.528;2024-03-23T07:23:13;13.63;;;4.47;;
27857;SDS011;16852;51.446;6.528;2024-03-23T07:25:14;8.55;;;3.65;;
27857;SDS011;16852;51.446;6.528;2024-03-23T07:27:14;10.57;;;3.67;;
27857;SDS011;16852;51.446;6.528;2024-03-23T07:29:15;10.38;;;3.30;;
27857;SDS011;16852;51.446;6.528;2024-03-23T07:31:16;12.40;;;4.78;;
27857;SDS011;16852;51.446;6.528;2024-03-23T07:33:17;7.25;;;3.83;;
27857;SDS011;16852;51.446;6.528;2024-03-23T07:35:18;11.10;;;3.45;;
27857;SDS011;16852;51.446;6.528;2024-03-23T07:37:18;13.55;;;3.83;;
27857;SDS011;16852;51.446;6.528;2024-03-23T07:39:19;8.20;;;3.50;;
27857;SDS011;16852;51.446;6.528;2024-03-23T07:41:19;11.95;;;3.63;;
27857;SDS011;16852;51.446;6.528;2024-03-23T07:43:21;7.72;;;3.22;;
27857;SDS011;16852;51.446;6.528;2024-03-23T07:45:22;11.60;;;3.33;;
27857;SDS011;16852;51.446;6.528;2024-03-23T07:47:22;8.73;;;3.38;;
27857;SDS011;16852;51.446;6.528;2024-03-23T07:49:23;8.30;;;3.13;;
27857;SDS011;16852;51.446;6.528;2024-03-23T07:51:24;9.63;;;3.33;;
27857;SDS011;16852;51.446;6.528;2024-03-23T07:53:25;10.05;;;3.00;;
27857;SDS011;16852;51.446;6.528;2024-03-23T07:55:26;7.93;;;3.30;;
27857;SDS011;16852;51.446;6.528;2024-03-23T07:57:26;8.77;;;2.95;;
27857;SDS011;16852;51.446;6.528;2024-03-23T07:59:27;9.35;;;3.28;;
27857;SDS011;16852;51.446;6.528;2024-03-23T08:01:31;12.25;;;3.20;;
27857;SDS011;16852;51.446;6.528;2024-03-23T08:03:31;10.65;;;3.28;;
27857;SDS011;16852;51.446;6.528;2024-03-23T08:05:32;8.38;;;3.15;;
27857;SDS011;16852;51.446;6.528;2024-03-23T08:07:34;10.02;;;2.90;;
27857;SDS011;16852;51.446;6.528;2024-03-23T08:09:35;12.13;;;3.13;;
27857;SDS011;16852;51.446;6.528;2024-03-23T08:11:35;14.00;;;3.72;;
27857;SDS011;16852;51.446;6.528;2024-03-23T08:13:38;13.75;;;3.63;;
27857;SDS011;16852;51.446;6.528;2024-03-23T08:15:39;9.02;;;3.15;;
27857;SDS011;16852;51.446;6.528;2024-03-23T08:17:40;8.70;;;2.97;;
27857;SDS011;16852;51.446;6.528;2024-03-23T08:19:41;9.82;;;3.13;;
27857;SDS011;16852;51.446;6.528;2024-03-23T08:21:41;8.00;;;2.50;;
27857;SDS011;16852;51.446;6.528;2024-03-23T08:23:42;5.78;;;2.33;;
27857;SDS011;16852;51.446;6.528;2024-03-23T08:25:43;9.27;;;2.63;;
27857;SDS011;16852;51.446;6.528;2024-03-23T08:27:46;6.50;;;2.00;;
27857;SDS011;16852;51.446;6.528;2024-03-23T08:29:47;3.13;;;1.50;;
27857;SDS011;16852;51.446;6.528;2024-03-23T08:31:47;8.95;;;2.50;;
27857;SDS011;16852;51.446;6.528;2024-03-23T08:33:48;6.63;;;2.10;;
27857;SDS011;16852;51.446;6.528;2024-03-23T08:35:58;5.63;;;1.90;;
27857;SDS011;16852;51.446;6.528;2024-03-23T08:38:02;5.75;;;1.85;;
27857;SDS011;16852;51.446;6.528;2024-03-23T08:40:03;4.82;;;1.60;;
27857;SDS011;16852;51.446;6.528;2024-03-23T08:42:04;8.27;;;2.13;;
27857;SDS011;16852;51.446;6.528;2024-03-23T08:44:05;6.88;;;2.42;;
27857;SDS011;16852;51.446;6.528;2024-03-23T08:46:06;5.28;;;2.03;;
27857;SDS011;16852;51.446;6.528;2024-03-23T08:48:08;7.28;;;2.58;;
27857;SDS011;16852;51.446;6.528;2024-03-23T08:50:09;7.38;;;2.55;;
27857;SDS011;16852;51.446;6.528;2024-03-23T08:52:09;7.65;;;2.53;;
27857;SDS011;16852;51.446;6.528;2024-03-23T08:54:10;15.38;;;2.97;;
27857;SDS011;16852;51.446;6.528;2024-03-23T08:56:11;10.40;;;2.65;;
27857;SDS011;16852;51.446;6.528;2024-03-23T08:58:12;13.02;;;4.18;;
27857;SDS011;16852;51.446;6.528;2024-03-23T09:00:14;13.70;;;3.23;;
27857;SDS011;16852;51.446;6.528;2024-03-23T09:02:14;8.63;;;2.83;;
27857;SDS011;16852;51.446;6.528;2024-03-23T09:04:15;9.50;;;3.15;;
27857;SDS011;16852;51.446;6.528;2024-03-23T09:06:16;10.52;;;3.65;;
27857;SDS011;16852;51.446;6.528;2024-03-23T09:08:17;13.00;;;3.75;;
27857;SDS011;16852;51.446;6.528;2024-03-23T09:10:17;9.77;;;3.15;;
27857;SDS011;16852;51.446;6.528;2024-03-23T09:12:36;8.32;;;3.65;;
27857;SDS011;16852;51.446;6.528;2024-03-23T09:14:55;9.95;;;3.60;;
27857;SDS011;16852;51.446;6.528;2024-03-23T09:17:14;9.88;;;2.88;;
27857;SDS011;16852;51.446;6.528;2024-03-23T09:19:33;7.10;;;2.75;;
27857;SDS011;16852;51.446;6.528;2024-03-23T09:21:34;10.32;;;3.50;;
27857;SDS011;16852;51.446;6.528;2024-03-23T09:23:35;14.50;;;3.42;;
27857;SDS011;16852;51.446;6.528;2024-03-23T09:25:36;12.32;;;3.33;;
27857;SDS011;16852;51.446;6.528;2024-03-23T09:27:37;9.80;;;2.60;;
27857;SDS011;16852;51.446;6.528;2024-03-23T09:29:38;10.10;;;3.05;;
27857;SDS011;16852;51.446;6.528;2024-03-23T09:31:39;12.60;;;2.80;;
27857;SDS011;16852;51.446;6.528;2024-03-23T09:33:41;8.30;;;2.40;;
27857;SDS011;16852;51.446;6.528;2024-03-23T09:35:42;14.18;;;2.88;;
27857;SDS011;16852;51.446;6.528;2024-03-23T09:37:44;7.40;;;2.20;;
27857;SDS011;16852;51.446;6.528;2024-03-23T09:39:45;14.75;;;2.42;;
27857;SDS011;16852;51.446;6.528;2024-03-23T09:41:46;12.70;;;2.47;;
27857;SDS011;16852;51.446;6.528;2024-03-23T09:43:46;7.05;;;2.33;;
27857;SDS011;16852;51.446;6.528;2024-03-23T09:45:48;7.63;;;2.17;;
27857;SDS011;16852;51.446;6.528;2024-03-23T09:47:49;10.98;;;2.67;;
27857;SDS011;16852;51.446;6.528;2024-03-23T09:49:51;8.50;;;2.17;;
27857;SDS011;16852;51.446;6.528;2024-03-23T09:51:52;12.35;;;2.92;;
27857;SDS011;16852;51.446;6.528;2024-03-23T09:53:55;10.80;;;2.05;;
27857;SDS011;16852;51.446;6.528;2024-03-23T09:55:55;5.75;;;1.80;;
27857;SDS011;16852;51.446;6.528;2024-03-23T09:57:56;10.60;;;2.33;;
27857;SDS011;16852;51.446;6.528;2024-03-23T09:59:57;7.82;;;2.03;;
27857;SDS011;16852;51.446;6.528;2024-03-23T10:01:58;9.38;;;2.08;;
27857;SDS011;16852;51.446;6.528;2024-03-23T10:03:58;9.10;;;1.83;;
27857;SDS011;16852;51.446;6.528;2024-03-23T10:06:02;10.52;;;2.20;;
27857;SDS011;16852;51.446;6.528;2024-03-23T10:10:15;7.72;;;1.92;;
27857;SDS011;16852;51.446;6.528;2024-03-23T10:12:17;5.83;;;2.30;;
27857;SDS011;16852;51.446;6.528;2024-03-23T10:14:51;9.13;;;1.75;;
27857;SDS011;16852;51.446;6.528;2024-03-23T10:16:45;8.18;;;1.90;;
27857;SDS011;16852;51.446;6.528;2024-03-23T10:18:46;8.70;;;2.00;;
27857;SDS011;16852;51.446;6.528;2024-03-23T10:21:08;6.20;;;1.70;;
27857;SDS011;16852;51.446;6.528;2024-03-23T10:23:15;6.90;;;1.60;;
27857;SDS011;16852;51.446;6.528;2024-03-23T10:25:16;10.13;;;1.70;;
27857;SDS011;16852;51.446;6.528;2024-03-23T10:27:21;3.65;;;1.25;;
27857;SDS011;16852;51.446;6.528;2024-03-23T10:29:21;7.95;;;1.02;;
27857;SDS011;16852;51.446;6.528;2024-03-23T10:31:22;6.60;;;1.30;;
27857;SDS011;16852;51.446;6.528;2024-03-23T10:33:23;2.15;;;0.90;;
27857;SDS011;16852;51.446;6.528;2024-03-23T10:35:23;2.67;;;0.52;;
27857;SDS011;16852;51.446;6.528;2024-03-23T10:37:24;2.17;;;0.60;;
27857;SDS011;16852;51.446;6.528;2024-03-23T10:39:24;1.08;;;0.50;;
27857;SDS011;16852;51.446;6.528;2024-03-23T10:41:28;2.92;;;0.50;;
27857;SDS011;16852;51.446;6.528;2024-03-23T10:43:31;2.17;;;0.60;;
27857;SDS011;16852;51.446;6.528;2024-03-23T10:45:33;1.83;;;0.50;;
27857;SDS011;16852;51.446;6.528;2024-03-23T10:47:34;1.70;;;0.60;;
27857;SDS011;16852;51.446;6.528;2024-03-23T10:49:35;2.03;;;0.75;;
27857;SDS011;16852;51.446;6.528;2024-03-23T10:51:36;1.98;;;0.70;;
27857;SDS011;16852;51.446;6.528;2024-03-23T10:53:38;2.55;;;0.85;;
27857;SDS011;16852;51.446;6.528;2024-03-23T10:55:38;4.60;;;1.23;;
27857;SDS011;16852;51.446;6.528;2024-03-23T10:57:42;4.15;;;1.17;;
27857;SDS011;16852;51.446;6.528;2024-03-23T10:59:48;3.60;;;1.25;;
27857;SDS011;16852;51.446;6.528;2024-03-23T11:01:55;6.22;;;1.52;;
27857;SDS011;16852;51.446;6.528;2024-03-23T11:04:00;3.33;;;1.40;;
27857;SDS011;16852;51.446;6.528;2024-03-23T11:06:01;5.10;;;1.50;;
27857;SDS011;16852;51.446;6.528;2024-03-23T11:08:03;3.30;;;1.45;;
27857;SDS011;16852;51.446;6.528;2024-03-23T11:10:04;6.95;;;1.83;;
27857;SDS011;16852;51.446;6.528;2024-03-23T11:12:26;5.68;;;2.13;;
27857;SDS011;16852;51.446;6.528;2024-03-23T11:14:27;4.60;;;1.73;;
27857;SDS011;16852;51.446;6.528;2024-03-23T11:16:33;6.15;;;1.92;;
27857;SDS011;16852;51.446;6.528;2024-03-23T11:18:36;8.68;;;2.08;;
27857;SDS011;16852;51.446;6.528;2024-03-23T11:20:36;9.32;;;2.50;;
27857;SDS011;16852;51.446;6.528;2024-03-23T11:24:41;6.22;;;2.40;;
27857;SDS011;16852;51.446;6.528;2024-03-23T11:26:43;4.07;;;1.67;;
27857;SDS011;16852;51.446;6.528;2024-03-23T11:28:43;7.25;;;2.28;;
27857;SDS011;16852;51.446;6.528;2024-03-23T11:30:44;6.80;;;1.80;;
27857;SDS011;16852;51.446;6.528;2024-03-23T11:32:45;3.83;;;1.35;;
27857;SDS011;16852;51.446;6.528;2024-03-23T11:34:47;6.78;;;1.40;;
27857;SDS011;16852;51.446;6.528;2024-03-23T11:36:48;6.93;;;1.83;;
27857;SDS011;16852;51.446;6.528;2024-03-23T11:38:52;5.28;;;1.67;;
27857;SDS011;16852;51.446;6.528;2024-03-23T11:40:52;7.50;;;1.55;;
27857;SDS011;16852;51.446;6.528;2024-03-23T11:42:56;4.05;;;1.30;;
27857;SDS011;16852;51.446;6.528;2024-03-23T11:44:58;6.50;;;1.65;;
27857;SDS011;16852;51.446;6.528;2024-03-23T11:47:07;4.40;;;1.20;;
27857;SDS011;16852;51.446;6.528;2024-03-23T11:51:29;9.45;;;1.95;;
27857;SDS011;16852;51.446;6.528;2024-03-23T11:53:34;3.63;;;1.38;;
27857;SDS011;16852;51.446;6.528;2024-03-23T11:55:39;3.55;;;1.23;;
27857;SDS011;16852;51.446;6.528;2024-03-23T11:57:53;4.18;;;1.60;;
27857;SDS011;16852;51.446;6.528;2024-03-23T11:59:54;8.02;;;1.45;;
27857;SDS011;16852;51.446;6.528;2024-03-23T12:01:54;4.60;;;1.45;;
27857;SDS011;16852;51.446;6.528;2024-03-23T12:03:55;5.15;;;1.33;;
27857;SDS011;16852;51.446;6.528;2024-03-23T12:05:56;5.32;;;1.30;;
27857;SDS011;16852;51.446;6.528;2024-03-23T12:10:19;5.55;;;1.60;;
27857;SDS011;16852;51.446;6.528;2024-03-23T12:12:20;7.47;;;2.25;;
27857;SDS011;16852;51.446;6.528;2024-03-23T12:14:21;5.47;;;1.70;;
27857;SDS011;16852;51.446;6.528;2024-03-23T12:16:24;6.43;;;1.95;;
27857;SDS011;16852;51.446;6.528;2024-03-23T12:18:27;6.07;;;1.42;;
27857;SDS011;16852;51.446;6.528;2024-03-23T12:20:28;9.82;;;1.52;;
27857;SDS011;16852;51.446;6.528;2024-03-23T12:22:28;4.57;;;1.48;;
27857;SDS011;16852;51.446;6.528;2024-03-23T12:24:32;5.88;;;1.58;;
27857;SDS011;16852;51.446;6.528;2024-03-23T12:26:36;6.85;;;1.70;;
27857;SDS011;16852;51.446;6.528;2024-03-23T12:28:37;7.25;;;1.77;;
27857;SDS011;16852;51.446;6.528;2024-03-23T12:30:39;4.85;;;1.10;;
27857;SDS011;16852;51.446;6.528;2024-03-23T12:32:40;4.87;;;1.00;;
27857;SDS011;16852;51.446;6.528;2024-03-23T12:34:40;2.05;;;0.60;;
27857;SDS011;16852;51.446;6.528;2024-03-23T12:36:41;2.78;;;0.98;;
27857;SDS011;16852;51.446;6.528;2024-03-23T12:38:42;2.38;;;0.60;;
27857;SDS011;16852;51.446;6.528;2024-03-23T12:40:47;2.53;;;1.17;;
27857;SDS011;16852;51.446;6.528;2024-03-23T12:42:48;4.75;;;1.15;;
27857;SDS011;16852;51.446;6.528;2024-03-23T12:44:49;3.38;;;0.90;;
27857;SDS011;16852;51.446;6.528;2024-03-23T12:46:50;3.15;;;1.00;;
27857;SDS011;16852;51.446;6.528;2024-03-23T12:48:50;4.68;;;1.00;;
27857;SDS011;16852;51.446;6.528;2024-03-23T12:50:54;2.05;;;0.70;;
27857;SDS011;16852;51.446;6.528;2024-03-23T12:52:55;3.78;;;1.15;;
27857;SDS011;16852;51.446;6.528;2024-03-23T12:54:55;3.50;;;1.42;;
27857;SDS011;16852;51.446;6.528;2024-03-23T12:56:56;3.83;;;1.27;;
27857;SDS011;16852;51.446;6.528;2024-03-23T12:58:57;5.43;;;1.80;;
27857;SDS011;16852;51.446;6.528;2024-03-23T13:00:58;7.90;;;1.85;;
27857;SDS011;16852;51.446;6.528;2024-03-23T13:02:59;5.93;;;1.60;;
27857;SDS011;16852;51.446;6.528;2024-03-23T13:04:59;9.93;;;1.77;;
27857;SDS011;16852;51.446;6.528;2024-03-23T13:07:00;8.05;;;2.00;;
27857;SDS011;16852;51.446;6.528;2024-03-23T13:09:01;4.22;;;1.58;;
27857;SDS011;16852;51.446;6.528;2024-03-23T13:11:02;3.90;;;1.60;;
27857;SDS011;16852;51.446;6.528;2024-03-23T13:13:03;4.40;;;1.60;;